Terminal Aerodrome Forecast
Issued by NWS Sterling, VA

Current Version | Previous Version | Text Only | Print | Product List | Glossary Off
Versions: 1 2 3 4 5 6 7 8 9 10 11 12 13 14 15 16 17 18 19 20 21 22 23 24

298
FTUS41 KLWX 030222 AAB
TAFMRB
TAF AMD
KMRB 030222Z 0302/0324 35004KT 3SM SHRA OVC050
     FM031200 36005KT P6SM -SHRA OVC008
     FM031300 36005KT P6SM -SHRA OVC015
     FM031600 35004KT P6SM -SHRA OVC025
     FM031800 35004KT P6SM BKN025
     FM032000 35005KT P6SM BKN045=

USA.gov is the U.S. government's official web portal to all federal, state and local government web resources and services.